createdAt,value
2022-07-28T00:07:11.703Z,22.27
2022-07-28T00:17:24.713Z,22.01
2022-07-28T00:27:37.701Z,21.76
2022-07-28T00:37:57.701Z,21.85
2022-07-28T00:48:10.720Z,22.03
2022-07-28T00:58:23.707Z,22.13
2022-07-28T01:09:00.732Z,22.08
2022-07-28T01:19:22.765Z,22.02
2022-07-28T01:29:44.756Z,21.99
2022-07-28T01:40:00.784Z,21.96
2022-07-28T01:50:15.777Z,21.96
2022-07-28T02:00:28.762Z,21.97
2022-07-28T02:10:42.811Z,21.87
2022-07-28T02:20:56.832Z,21.89
2022-07-28T02:31:12.839Z,21.85
2022-07-28T02:41:30.815Z,21.71
2022-07-28T02:51:44.827Z,21.68
2022-07-28T03:01:57.876Z,21.65
2022-07-28T03:12:10.829Z,21.60
2022-07-28T03:22:23.860Z,21.63
2022-07-28T03:32:39.848Z,21.65
2022-07-28T03:42:53.873Z,21.53
2022-07-28T03:53:09.860Z,21.40
2022-07-28T04:03:42.794Z,21.49
2022-07-28T04:13:54.870Z,21.37
2022-07-28T04:24:07.901Z,21.43
2022-07-28T04:34:26.909Z,21.13
2022-07-28T04:44:39.913Z,21.20
2022-07-28T04:54:52.928Z,21.42
2022-07-28T05:05:05.972Z,21.26
2022-07-28T05:15:18.951Z,21.58
2022-07-28T05:25:32.946Z,21.60
2022-07-28T05:35:52.947Z,20.54
2022-07-28T05:46:06.033Z,20.78
2022-07-28T05:56:18.970Z,21.78
2022-07-28T06:06:31.974Z,22.41
2022-07-28T06:16:45.043Z,19.66
2022-07-28T06:26:58.006Z,21.80
2022-07-28T06:37:11.974Z,21.91
2022-07-28T06:47:25.029Z,21.39
2022-07-28T06:57:39.024Z,22.53
2022-07-28T07:07:52.030Z,22.92
2022-07-28T07:18:05.036Z,22.55
2022-07-28T07:28:18.062Z,23.92
2022-07-28T07:38:37.042Z,24.65
2022-07-28T07:48:50.101Z,23.62
2022-07-28T07:59:03.058Z,25.80
2022-07-28T08:09:16.088Z,25.51
2022-07-28T08:19:29.101Z,24.74
2022-07-28T08:29:43.111Z,26.06
2022-07-28T08:39:56.090Z,27.22
2022-07-28T08:50:09.142Z,27.10
2022-07-28T09:00:22.106Z,26.99
2022-07-28T09:10:36.137Z,26.03
2022-07-28T09:20:49.141Z,26.94
2022-07-28T09:31:02.186Z,26.84
2022-07-28T09:41:15.159Z,26.11
2022-07-28T10:02:08.210Z,28.85
2022-07-28T10:12:28.201Z,28.32
2022-07-28T10:22:43.558Z,28.97
2022-07-28T10:32:56.217Z,28.14
2022-07-28T10:43:09.194Z,29.78
2022-07-28T10:53:33.240Z,29.65
2022-07-28T11:03:55.311Z,30.29
2022-07-28T11:14:43.309Z,30.79
2022-07-28T11:25:18.500Z,29.57
2022-07-28T11:35:42.256Z,30.62
2022-07-28T11:45:56.329Z,29.73
2022-07-28T11:56:11.289Z,28.51
2022-07-28T12:06:28.735Z,27.54
2022-07-28T12:16:44.395Z,28.38
2022-07-28T12:26:57.323Z,28.59
2022-07-28T12:37:20.306Z,29.40
2022-07-28T12:47:36.324Z,26.99
2022-07-28T12:57:55.325Z,29.62
2022-07-28T13:08:09.400Z,30.47
2022-07-28T13:18:24.563Z,28.84
2022-07-28T13:28:37.377Z,29.58
2022-07-28T13:38:50.350Z,29.60
2022-07-28T13:49:03.419Z,27.23
2022-07-28T13:59:18.364Z,26.66
2022-07-28T14:09:33.237Z,28.60
2022-07-28T14:19:49.408Z,28.67
2022-07-28T14:30:03.895Z,27.56
2022-07-28T14:40:17.423Z,26.63
2022-07-28T14:50:31.428Z,27.31
2022-07-28T15:00:44.440Z,27.52
2022-07-28T15:10:58.457Z,27.50
2022-07-28T15:21:11.447Z,27.30
2022-07-28T15:31:24.523Z,27.63
2022-07-28T15:41:38.474Z,26.92
2022-07-28T15:51:51.495Z,26.16
2022-07-28T16:02:04.508Z,26.05
2022-07-28T16:12:17.523Z,25.49
2022-07-28T16:22:30.494Z,25.24
2022-07-28T16:32:43.541Z,25.36
2022-07-28T16:42:58.505Z,25.58
2022-07-28T16:53:14.548Z,25.25
2022-07-28T17:03:27.556Z,25.36
2022-07-28T17:13:47.558Z,25.20
2022-07-28T17:24:00.559Z,25.26
2022-07-28T17:34:13.826Z,25.28
2022-07-28T17:44:26.575Z,25.05
2022-07-28T17:54:59.607Z,24.68
2022-07-28T18:05:13.591Z,24.55
2022-07-28T18:15:26.638Z,24.53
2022-07-28T18:25:45.009Z,23.96
2022-07-28T18:36:04.643Z,24.25
2022-07-28T18:46:17.726Z,24.18
2022-07-28T18:56:30.650Z,23.75
2022-07-28T19:06:43.653Z,23.67
2022-07-28T19:16:56.691Z,23.29
2022-07-28T19:27:10.802Z,23.15
2022-07-28T19:37:30.692Z,23.04
2022-07-28T19:47:43.777Z,22.54
2022-07-28T19:57:56.692Z,22.73
2022-07-28T20:08:09.702Z,22.64
2022-07-28T20:18:26.743Z,22.55
2022-07-28T20:28:39.702Z,22.80
2022-07-28T20:38:52.754Z,22.64
2022-07-28T20:49:05.951Z,22.69
2022-07-28T20:59:18.755Z,22.65
2022-07-28T21:09:31.740Z,22.57
2022-07-28T21:19:44.795Z,22.52
2022-07-28T21:30:10.778Z,22.38
2022-07-28T21:40:30.796Z,22.38
2022-07-28T21:50:44.781Z,22.45
2022-07-28T22:01:02.459Z,22.40
2022-07-28T22:11:15.803Z,22.15
2022-07-28T22:21:28.822Z,22.17
2022-07-28T22:31:42.871Z,22.04
2022-07-28T22:41:55.872Z,22.06
2022-07-28T22:52:08.843Z,21.93
2022-07-28T23:02:21.848Z,21.91
2022-07-28T23:12:34.854Z,21.82
2022-07-28T23:22:47.885Z,21.54
2022-07-28T23:33:00.863Z,21.65
2022-07-28T23:43:13.895Z,21.77
2022-07-28T23:53:26.910Z,21.62
